Time;durP1;ratioP1;P1;durP2;ratioP2;P2;SDS_P1;SDS_P2;PMS_P1;PMS_P2;Temp;Humidity;BMP_temperature;BMP_pressure;BME280_temperature;BME280_humidity;BME280_pressure;Samples;Min_cycle;Max_cycle;Signal;HPM_P1;HPM_P2
2023/01/31 00:02:08;;;;;;;19.27;10.95;;;4.80;99.90;;;;;;5018230;28;20277;-76
2023/01/31 00:04:54;;;;;;;20.75;12.70;;;4.90;99.90;;;;;;5026340;28;20201;-76
2023/01/31 00:07:40;;;;;;;25.15;12.75;;;4.90;99.90;;;;;;5028338;28;20217;-76
2023/01/31 00:10:26;;;;;;;22.30;10.57;;;4.90;99.90;;;;;;5028814;28;20651;-76
2023/01/31 00:13:12;;;;;;;19.33;9.60;;;4.90;99.90;;;;;;5023361;28;20210;-75
2023/01/31 00:15:58;;;;;;;22.83;12.00;;;4.80;99.90;;;;;;5034003;28;20213;-77
2023/01/31 00:18:44;;;;;;;27.42;12.40;;;4.90;99.90;;;;;;5036999;28;20228;-76
2023/01/31 00:21:31;;;;;;;17.27;11.10;;;4.90;99.90;;;;;;5018044;28;20209;-76
2023/01/31 00:24:17;;;;;;;16.35;10.40;;;4.90;99.90;;;;;;5023583;28;20275;-76
2023/01/31 00:27:02;;;;;;;17.83;10.32;;;4.90;99.90;;;;;;5023388;28;20204;-76
2023/01/31 00:29:49;;;;;;;23.42;10.45;;;4.90;99.90;;;;;;5034023;28;20224;-74
2023/01/31 00:32:35;;;;;;;21.50;10.90;;;4.90;99.90;;;;;;5012825;28;20205;-75
2023/01/31 00:35:20;;;;;;;16.63;10.48;;;4.90;99.90;;;;;;5028461;28;20271;-77
2023/01/31 00:38:06;;;;;;;15.90;11.38;;;5.00;99.90;;;;;;5023860;28;20368;-76
2023/01/31 00:40:52;;;;;;;18.50;11.60;;;5.00;99.90;;;;;;5027878;28;20202;-76
2023/01/31 00:43:38;;;;;;;18.40;10.63;;;5.00;99.90;;;;;;5021510;28;20285;-77
2023/01/31 00:46:26;;;;;;;17.48;10.88;;;4.90;99.90;;;;;;5030894;28;20361;-77
2023/01/31 00:49:12;;;;;;;20.33;11.77;;;5.00;99.90;;;;;;5021269;28;20360;-77
2023/01/31 00:51:57;;;;;;;19.92;10.90;;;4.90;99.90;;;;;;5024247;28;20213;-76
2023/01/31 00:54:43;;;;;;;18.10;11.63;;;4.90;99.90;;;;;;5026934;28;20209;-75
2023/01/31 00:57:28;;;;;;;20.33;11.82;;;4.90;99.90;;;;;;5023203;28;20456;-76
2023/01/31 01:00:16;;;;;;;25.63;11.75;;;4.90;99.90;;;;;;5026238;28;20197;-76
2023/01/31 01:03:03;;;;;;;17.50;9.20;;;4.80;99.90;;;;;;5019399;28;20214;-75
2023/01/31 01:05:48;;;;;;;16.98;10.82;;;4.90;99.90;;;;;;5024147;28;20202;-76
2023/01/31 01:08:35;;;;;;;21.60;10.98;;;4.90;99.90;;;;;;5028268;28;20445;-77
2023/01/31 01:11:23;;;;;;;18.55;9.63;;;4.90;99.90;;;;;;5016286;28;20237;-76
2023/01/31 01:14:08;;;;;;;17.08;10.70;;;5.00;99.90;;;;;;5022182;28;20217;-76
2023/01/31 01:16:57;;;;;;;23.08;10.52;;;4.90;99.90;;;;;;5031214;28;20214;-76
2023/01/31 01:19:43;;;;;;;20.88;10.48;;;4.90;99.90;;;;;;5036954;28;20225;-75
2023/01/31 01:22:29;;;;;;;19.08;10.20;;;4.90;99.90;;;;;;5022539;28;20305;-77
2023/01/31 01:25:15;;;;;;;20.25;10.15;;;4.90;99.90;;;;;;5030730;28;20209;-76
2023/01/31 01:28:00;;;;;;;18.30;9.95;;;4.90;99.90;;;;;;5024063;28;20225;-76
2023/01/31 01:30:46;;;;;;;20.92;10.30;;;5.00;99.90;;;;;;5027342;28;20416;-76
2023/01/31 01:33:32;;;;;;;17.13;9.45;;;5.00;99.90;;;;;;5028139;28;20210;-76
2023/01/31 01:36:20;;;;;;;23.20;10.75;;;5.00;99.90;;;;;;5028784;28;20248;-76
2023/01/31 01:39:08;;;;;;;20.17;9.45;;;5.00;99.90;;;;;;5035811;28;20233;-76
2023/01/31 01:41:55;;;;;;;23.58;10.95;;;5.00;99.90;;;;;;5025414;28;20757;-77
2023/01/31 01:44:50;;;;;;;18.70;10.57;;;4.90;99.90;;;;;;5025123;28;20296;-77
2023/01/31 01:47:40;;;;;;;18.30;9.80;;;5.00;99.90;;;;;;5018293;28;20206;-76
2023/01/31 01:50:31;;;;;;;19.88;10.23;;;5.10;99.90;;;;;;5025322;28;20229;-76
2023/01/31 01:53:20;;;;;;;18.88;9.00;;;5.00;99.90;;;;;;5034384;28;20210;-77
2023/01/31 01:56:09;;;;;;;16.58;9.57;;;4.90;99.90;;;;;;5027169;28;20249;-76
2023/01/31 01:59:00;;;;;;;15.88;10.05;;;4.80;99.90;;;;;;5019237;28;20225;-75
2023/01/31 02:01:48;;;;;;;16.55;9.93;;;4.60;99.90;;;;;;5026562;28;20228;-76
2023/01/31 02:04:37;;;;;;;16.15;10.10;;;4.70;99.90;;;;;;5033453;28;20210;-77
2023/01/31 02:07:23;;;;;;;22.35;9.90;;;4.70;99.90;;;;;;5033401;28;20294;-77
2023/01/31 02:10:15;;;;;;;16.95;8.77;;;4.60;99.90;;;;;;5025963;28;20299;-74
2023/01/31 02:13:01;;;;;;;18.48;9.07;;;4.70;99.90;;;;;;5031148;28;20678;-76
2023/01/31 02:15:47;;;;;;;14.38;9.73;;;4.70;99.90;;;;;;5028153;28;20679;-76
2023/01/31 02:18:32;;;;;;;17.75;10.80;;;4.80;99.90;;;;;;5018938;28;20591;-76
2023/01/31 02:21:53;;;;;;;17.58;9.70;;;4.70;99.90;;;;;;5027179;28;20565;-77
2023/01/31 02:25:24;;;;;;;16.52;9.77;;;4.60;99.90;;;;;;5025056;28;20496;-76
2023/01/31 02:28:41;;;;;;;16.20;8.80;;;4.60;99.90;;;;;;5031004;28;20221;-74
2023/01/31 02:31:58;;;;;;;21.98;9.77;;;4.60;99.90;;;;;;5016595;28;20218;-76
2023/01/31 02:34:54;;;;;;;21.98;10.10;;;4.50;99.90;;;;;;5031625;28;20225;-77
2023/01/31 02:37:51;;;;;;;11.30;8.52;;;4.50;99.90;;;;;;5027118;28;20221;-76
2023/01/31 02:40:47;;;;;;;17.65;9.27;;;4.50;99.90;;;;;;5028825;28;20313;-76
2023/01/31 02:46:53;;;;;;;18.60;9.13;;;4.30;99.90;;;;;;5028210;28;20720;-76
2023/01/31 02:49:46;;;;;;;18.70;9.52;;;4.30;99.90;;;;;;5014536;28;20245;-75
2023/01/31 02:52:40;;;;;;;14.25;9.00;;;4.40;99.90;;;;;;5027643;28;20213;-76
2023/01/31 02:58:37;;;;;;;18.27;8.73;;;4.30;99.90;;;;;;5035700;28;20245;-76
2023/01/31 03:01:27;;;;;;;16.23;9.30;;;4.30;99.90;;;;;;5022155;28;20237;-76
2023/01/31 03:04:14;;;;;;;19.70;8.05;;;4.20;99.90;;;;;;5025799;28;20193;-76
2023/01/31 03:07:05;;;;;;;25.02;10.45;;;4.10;99.90;;;;;;5028714;28;20240;-76
2023/01/31 03:10:02;;;;;;;19.67;7.93;;;4.00;99.90;;;;;;5024565;28;20226;-76
2023/01/31 03:13:00;;;;;;;17.05;9.55;;;3.90;99.90;;;;;;5025198;28;20206;-77
2023/01/31 03:19:12;;;;;;;16.33;8.60;;;3.80;99.90;;;;;;5022267;28;20514;-76
2023/01/31 03:22:04;;;;;;;17.98;7.72;;;3.60;99.90;;;;;;5026948;28;20746;-77
2023/01/31 03:24:52;;;;;;;23.95;8.50;;;3.60;99.90;;;;;;5030079;28;20204;-76
2023/01/31 03:27:39;;;;;;;14.70;7.10;;;3.50;99.90;;;;;;5025758;28;20498;-75
2023/01/31 03:30:30;;;;;;;19.02;8.73;;;3.60;99.90;;;;;;5018984;28;20221;-76
2023/01/31 03:33:20;;;;;;;17.42;7.63;;;3.30;99.90;;;;;;5034187;28;20198;-77
2023/01/31 03:36:11;;;;;;;11.18;7.45;;;3.20;99.90;;;;;;5026607;28;20213;-76
2023/01/31 03:39:07;;;;;;;21.88;9.27;;;3.30;99.90;;;;;;5025004;28;20229;-76
2023/01/31 03:42:01;;;;;;;16.08;7.68;;;3.10;99.90;;;;;;5027091;28;20260;-76
2023/01/31 03:44:54;;;;;;;14.50;8.38;;;3.20;99.90;;;;;;5023030;28;20249;-76
2023/01/31 03:47:43;;;;;;;17.73;7.78;;;3.00;99.90;;;;;;5028624;28;20717;-76
2023/01/31 03:50:37;;;;;;;17.02;8.70;;;3.00;99.90;;;;;;5026418;28;20233;-75
2023/01/31 03:53:28;;;;;;;21.63;8.55;;;3.00;99.90;;;;;;5023725;28;20225;-75
2023/01/31 03:56:17;;;;;;;13.35;7.75;;;2.90;99.90;;;;;;5031643;28;20206;-76
2023/01/31 03:59:09;;;;;;;13.05;7.88;;;2.80;99.90;;;;;;5026142;28;20234;-76
2023/01/31 04:01:59;;;;;;;16.58;8.55;;;2.80;99.90;;;;;;5016140;28;20210;-75
2023/01/31 04:04:50;;;;;;;12.38;8.00;;;2.70;99.90;;;;;;5022740;28;20213;-76
2023/01/31 04:07:36;;;;;;;21.13;8.25;;;2.70;99.90;;;;;;5026853;28;20256;-76
2023/01/31 04:10:24;;;;;;;18.63;8.35;;;2.60;99.90;;;;;;5015606;28;20770;-77
2023/01/31 04:13:10;;;;;;;18.50;8.98;;;2.60;99.90;;;;;;5018985;28;20352;-76
2023/01/31 04:15:57;;;;;;;15.43;8.07;;;2.60;99.90;;;;;;5020758;28;20236;-76
2023/01/31 04:18:43;;;;;;;15.82;8.05;;;2.50;99.90;;;;;;5020809;28;20226;-76
2023/01/31 04:21:29;;;;;;;11.85;7.00;;;2.40;99.90;;;;;;5037353;28;20390;-76
2023/01/31 04:24:14;;;;;;;12.57;8.15;;;2.40;99.90;;;;;;5019302;28;20345;-76
2023/01/31 04:27:00;;;;;;;15.52;8.30;;;2.40;99.90;;;;;;5027498;28;20220;-74
2023/01/31 04:29:45;;;;;;;16.95;8.10;;;2.30;99.90;;;;;;5022286;28;20229;-76
2023/01/31 04:32:33;;;;;;;19.02;7.38;;;2.30;99.90;;;;;;5020830;28;20284;-76
2023/01/31 04:35:18;;;;;;;13.88;7.75;;;2.40;99.90;;;;;;5028688;28;20212;-75
2023/01/31 04:38:04;;;;;;;18.98;9.13;;;2.30;99.90;;;;;;5032285;28;20279;-75
2023/01/31 04:40:50;;;;;;;14.32;8.23;;;2.30;99.90;;;;;;5023574;28;20280;-76
2023/01/31 04:43:35;;;;;;;14.05;7.53;;;2.40;99.90;;;;;;5026200;28;20213;-76
2023/01/31 04:46:21;;;;;;;14.85;7.28;;;2.40;99.90;;;;;;5031383;28;20209;-76
2023/01/31 04:49:08;;;;;;;16.73;7.95;;;2.30;99.90;;;;;;5019302;28;20323;-76
2023/01/31 04:51:54;;;;;;;21.30;9.10;;;2.30;99.90;;;;;;5030286;28;20222;-76
2023/01/31 04:54:40;;;;;;;14.32;7.38;;;2.20;99.90;;;;;;5027768;28;20213;-76
2023/01/31 04:57:26;;;;;;;17.48;7.47;;;2.20;99.90;;;;;;5032272;28;20205;-74
2023/01/31 05:00:13;;;;;;;15.43;8.15;;;2.10;99.90;;;;;;5032859;28;20244;-76
2023/01/31 05:02:59;;;;;;;17.05;7.75;;;2.00;99.90;;;;;;5044126;28;20712;-76
2023/01/31 05:05:47;;;;;;;13.15;7.43;;;2.00;99.90;;;;;;5032210;28;20209;-76
2023/01/31 05:08:33;;;;;;;17.25;9.50;;;2.10;99.90;;;;;;5018162;28;20222;-76
2023/01/31 05:11:19;;;;;;;16.67;7.80;;;2.00;99.90;;;;;;5026554;28;20315;-76
2023/01/31 05:14:05;;;;;;;12.32;7.40;;;2.10;99.90;;;;;;5038891;28;20682;-76
2023/01/31 05:16:51;;;;;;;19.60;8.88;;;2.00;99.90;;;;;;5032847;28;20607;-76
2023/01/31 05:19:37;;;;;;;13.55;8.60;;;2.00;99.90;;;;;;5023240;28;20233;-76
2023/01/31 05:22:24;;;;;;;18.85;8.55;;;1.80;99.90;;;;;;5031837;28;20201;-76
2023/01/31 05:25:10;;;;;;;22.15;8.27;;;1.80;99.90;;;;;;5027162;28;20222;-74
2023/01/31 05:27:55;;;;;;;15.18;8.35;;;1.90;99.90;;;;;;5020720;28;20229;-75
2023/01/31 05:30:41;;;;;;;22.65;8.70;;;1.80;99.90;;;;;;5036625;28;20221;-74
2023/01/31 05:33:27;;;;;;;17.75;8.77;;;1.80;99.90;;;;;;5032982;28;20213;-76
2023/01/31 05:36:13;;;;;;;15.38;8.25;;;2.00;99.90;;;;;;5030169;28;20260;-76
2023/01/31 05:39:00;;;;;;;14.82;7.93;;;1.90;99.90;;;;;;5045681;22;20244;-74
2023/01/31 05:41:46;;;;;;;11.55;6.97;;;1.90;99.90;;;;;;5040849;28;20570;-74
2023/01/31 05:44:32;;;;;;;19.23;8.15;;;1.80;99.90;;;;;;5043977;28;20204;-74
2023/01/31 05:47:18;;;;;;;23.17;8.20;;;1.90;99.90;;;;;;5047551;28;20213;-74
2023/01/31 05:50:05;;;;;;;13.30;6.55;;;2.00;99.90;;;;;;5030407;28;20225;-74
2023/01/31 05:52:51;;;;;;;18.70;8.98;;;2.00;99.90;;;;;;5024802;28;20206;-74
2023/01/31 05:55:38;;;;;;;11.40;7.57;;;2.00;99.90;;;;;;5023866;28;20624;-74
2023/01/31 05:58:23;;;;;;;12.13;6.68;;;2.10;99.90;;;;;;5024842;28;20728;-74
2023/01/31 06:01:09;;;;;;;15.88;7.72;;;2.10;99.90;;;;;;5022078;28;20197;-74
2023/01/31 06:03:55;;;;;;;17.13;7.57;;;2.20;99.90;;;;;;5023765;28;20201;-73
2023/01/31 06:06:41;;;;;;;10.88;7.47;;;2.10;99.90;;;;;;5024660;28;20325;-74
2023/01/31 06:09:27;;;;;;;15.15;7.43;;;2.00;99.90;;;;;;5027728;28;20233;-72
2023/01/31 06:12:14;;;;;;;14.45;7.32;;;1.90;99.90;;;;;;5019133;28;20245;-74
2023/01/31 06:15:00;;;;;;;20.35;7.85;;;2.00;99.90;;;;;;5025332;28;20217;-74
2023/01/31 06:17:45;;;;;;;15.35;6.90;;;1.90;99.90;;;;;;5021813;28;20299;-74
2023/01/31 06:20:31;;;;;;;11.77;6.18;;;1.80;99.90;;;;;;5025690;28;20205;-73
2023/01/31 06:23:17;;;;;;;18.35;8.27;;;1.70;99.90;;;;;;5020621;28;20251;-72
2023/01/31 06:26:03;;;;;;;20.95;8.02;;;1.60;99.90;;;;;;5024178;28;20209;-74
2023/01/31 06:28:50;;;;;;;15.38;7.07;;;1.70;99.90;;;;;;5021302;28;20230;-74
2023/01/31 06:31:35;;;;;;;15.85;7.15;;;1.70;99.90;;;;;;5028740;28;20225;-74
2023/01/31 06:34:21;;;;;;;14.30;8.10;;;1.80;99.90;;;;;;5023152;28;20206;-73
2023/01/31 06:37:09;;;;;;;14.05;7.82;;;1.90;99.90;;;;;;5023957;28;20202;-73
2023/01/31 06:39:55;;;;;;;19.98;8.93;;;1.90;99.90;;;;;;5025404;28;20726;-74
2023/01/31 06:42:40;;;;;;;18.73;9.80;;;1.90;99.90;;;;;;5023167;28;20341;-74
2023/01/31 06:45:28;;;;;;;13.68;8.90;;;1.90;99.90;;;;;;5028748;28;20205;-74
2023/01/31 06:48:13;;;;;;;24.60;10.40;;;1.80;99.90;;;;;;5022872;28;20229;-74
2023/01/31 06:50:59;;;;;;;24.95;9.63;;;2.00;99.90;;;;;;5022839;28;20795;-74
2023/01/31 06:53:45;;;;;;;30.98;13.68;;;2.00;99.90;;;;;;5022929;28;20202;-73
2023/01/31 06:56:30;;;;;;;27.90;13.90;;;2.20;99.90;;;;;;5017706;28;20870;-74
2023/01/31 06:59:16;;;;;;;24.90;14.18;;;2.30;99.90;;;;;;5013777;28;20695;-73
2023/01/31 07:02:03;;;;;;;34.33;13.80;;;2.50;99.90;;;;;;5012834;28;20569;-72
2023/01/31 07:04:49;;;;;;;28.42;12.55;;;2.60;99.90;;;;;;5019810;28;20690;-74
2023/01/31 07:07:34;;;;;;;25.48;13.23;;;2.70;99.90;;;;;;5016931;28;20275;-74
2023/01/31 07:10:20;;;;;;;31.05;13.70;;;2.70;99.90;;;;;;5014011;28;20206;-74
2023/01/31 07:13:06;;;;;;;22.88;11.70;;;2.80;99.90;;;;;;5021908;28;20201;-74
2023/01/31 07:15:51;;;;;;;26.20;13.55;;;3.00;99.90;;;;;;5021327;28;20220;-73
2023/01/31 07:18:38;;;;;;;25.63;14.77;;;3.00;99.90;;;;;;5020850;28;20229;-73
2023/01/31 07:21:25;;;;;;;26.55;14.77;;;3.20;99.90;;;;;;5023003;28;20592;-74
2023/01/31 07:24:10;;;;;;;33.00;14.80;;;3.30;99.90;;;;;;5014869;28;20210;-73
2023/01/31 07:26:56;;;;;;;22.63;13.95;;;3.30;99.90;;;;;;5018449;28;20201;-74
2023/01/31 07:29:42;;;;;;;32.35;20.45;;;3.30;99.90;;;;;;5011742;28;20245;-74
2023/01/31 07:32:29;;;;;;;31.25;15.45;;;3.40;99.90;;;;;;5019447;28;20244;-74
2023/01/31 07:35:17;;;;;;;31.88;14.70;;;3.40;99.90;;;;;;5016781;28;20264;-74
2023/01/31 07:38:02;;;;;;;29.00;15.40;;;3.40;99.90;;;;;;5019615;28;20218;-74
2023/01/31 07:40:48;;;;;;;33.40;14.55;;;3.40;99.90;;;;;;5024902;28;20349;-72
2023/01/31 07:43:34;;;;;;;28.23;15.55;;;3.50;99.90;;;;;;5023064;28;20690;-73
2023/01/31 07:46:20;;;;;;;26.63;13.93;;;3.40;99.90;;;;;;5023098;28;20297;-73
2023/01/31 07:49:05;;;;;;;26.00;13.85;;;3.40;99.90;;;;;;5026630;28;20221;-74
2023/01/31 07:51:52;;;;;;;30.15;13.55;;;3.40;99.90;;;;;;5027292;28;20247;-73
2023/01/31 07:54:37;;;;;;;25.45;12.52;;;3.40;99.90;;;;;;5024925;28;20741;-72
2023/01/31 07:57:23;;;;;;;30.70;12.48;;;3.40;99.90;;;;;;5009938;28;20276;-74
2023/01/31 08:03:31;;;;;;;25.25;13.60;;;3.40;99.90;;;;;;5024802;28;20773;-74
2023/01/31 08:03:32;;;;;;;26.23;13.30;;;3.40;99.90;;;;;;5025799;28;20252;-73
2023/01/31 08:06:18;;;;;;;25.42;13.88;;;3.20;99.90;;;;;;5018282;28;20257;-74
2023/01/31 08:09:06;;;;;;;25.63;13.88;;;3.20;99.90;;;;;;5026021;28;20229;-73
2023/01/31 08:11:51;;;;;;;20.95;12.45;;;3.20;99.90;;;;;;5018306;28;20787;-74
2023/01/31 08:14:37;;;;;;;27.52;14.13;;;3.30;99.90;;;;;;5017938;28;20202;-73
2023/01/31 08:17:22;;;;;;;24.98;14.75;;;3.30;99.90;;;;;;5018274;28;20209;-74
2023/01/31 08:20:09;;;;;;;26.58;14.30;;;3.20;99.90;;;;;;5022542;28;20319;-74
2023/01/31 08:22:58;;;;;;;31.00;12.52;;;3.30;99.90;;;;;;5024270;28;20232;-74
2023/01/31 08:25:45;;;;;;;22.80;11.77;;;3.30;99.90;;;;;;5015239;28;20220;-73
2023/01/31 08:28:31;;;;;;;22.88;13.73;;;3.30;99.90;;;;;;5030172;28;20296;-74
2023/01/31 08:31:18;;;;;;;27.23;11.30;;;3.30;99.90;;;;;;5028504;28;20237;-74
2023/01/31 08:34:06;;;;;;;30.40;13.15;;;3.30;99.90;;;;;;5024210;28;20206;-70
2023/01/31 08:36:52;;;;;;;24.80;12.52;;;3.30;99.90;;;;;;5015046;28;20889;-74
2023/01/31 08:39:37;;;;;;;31.40;14.63;;;3.30;99.90;;;;;;5027790;28;20233;-74
2023/01/31 08:42:24;;;;;;;29.00;14.35;;;3.30;99.90;;;;;;5033094;28;20652;-74
2023/01/31 08:45:11;;;;;;;34.65;13.40;;;3.30;99.90;;;;;;5030557;28;20437;-73
2023/01/31 08:47:58;;;;;;;27.23;12.38;;;3.30;99.90;;;;;;5028779;28;20209;-73
2023/01/31 08:50:43;;;;;;;36.47;13.55;;;3.30;99.90;;;;;;5032442;28;20212;-72
2023/01/31 08:53:29;;;;;;;32.78;14.10;;;3.40;99.90;;;;;;5029165;28;20569;-74
2023/01/31 08:56:16;;;;;;;28.88;14.38;;;3.40;99.90;;;;;;5027375;28;20281;-74
2023/01/31 08:59:03;;;;;;;32.67;14.60;;;3.50;99.90;;;;;;5033772;28;20344;-74
2023/01/31 09:01:48;;;;;;;34.97;13.93;;;3.50;99.90;;;;;;5029964;28;20578;-74
2023/01/31 09:04:34;;;;;;;34.85;14.13;;;3.50;99.90;;;;;;5033069;28;20525;-73
2023/01/31 09:07:20;;;;;;;27.48;12.85;;;3.50;99.90;;;;;;5024800;28;20285;-73
2023/01/31 09:10:06;;;;;;;26.15;13.15;;;3.60;99.90;;;;;;5030128;28;20316;-74
2023/01/31 09:12:52;;;;;;;29.63;14.55;;;3.50;99.90;;;;;;5031982;28;20233;-74
2023/01/31 09:15:39;;;;;;;23.73;13.00;;;3.50;99.90;;;;;;5027781;28;20220;-74
2023/01/31 09:18:24;;;;;;;35.22;15.50;;;3.50;99.90;;;;;;5025817;28;20433;-74
2023/01/31 09:21:12;;;;;;;21.35;13.23;;;3.50;99.90;;;;;;5026022;28;20201;-74
2023/01/31 09:24:01;;;;;;;28.13;14.23;;;3.60;99.90;;;;;;5033165;28;20309;-74
2023/01/31 09:26:46;;;;;;;20.80;10.88;;;3.60;99.90;;;;;;5026492;28;20213;-74
2023/01/31 09:29:32;;;;;;;22.48;11.20;;;3.70;99.90;;;;;;5031850;28;20224;-74
2023/01/31 09:32:20;;;;;;;27.52;12.57;;;3.80;99.90;;;;;;5033143;28;20619;-74
2023/01/31 09:35:06;;;;;;;30.33;12.48;;;3.90;99.90;;;;;;5027893;28;20603;-74
2023/01/31 09:37:52;;;;;;;27.45;11.10;;;3.90;99.90;;;;;;5031812;28;20241;-74
2023/01/31 09:40:40;;;;;;;21.50;11.35;;;4.00;99.90;;;;;;5030933;28;20278;-74
2023/01/31 09:43:30;;;;;;;28.23;12.52;;;4.00;99.90;;;;;;5029408;28;20194;-74
2023/01/31 09:46:18;;;;;;;24.02;12.77;;;4.00;99.90;;;;;;5018636;28;20205;-74
2023/01/31 09:49:13;;;;;;;27.38;12.65;;;4.00;99.90;;;;;;5030798;28;20245;-74
2023/01/31 09:52:01;;;;;;;25.08;11.77;;;3.90;99.90;;;;;;5032918;28;20264;-74
2023/01/31 09:54:46;;;;;;;31.35;12.27;;;4.00;99.90;;;;;;5029259;28;20206;-74
2023/01/31 09:57:41;;;;;;;34.17;11.50;;;4.00;99.90;;;;;;5028260;28;20256;-74
2023/01/31 10:00:30;;;;;;;28.15;12.70;;;4.00;99.90;;;;;;5027805;28;20762;-73
2023/01/31 10:03:44;;;;;;;23.50;11.82;;;4.00;99.90;;;;;;5028052;28;20757;-74
2023/01/31 10:06:36;;;;;;;25.95;12.05;;;4.10;99.90;;;;;;5006692;28;20205;-74
2023/01/31 10:09:34;;;;;;;31.38;13.15;;;4.10;99.90;;;;;;5031209;28;20229;-74
2023/01/31 10:12:24;;;;;;;24.63;13.00;;;4.20;99.90;;;;;;5031642;28;20233;-74
2023/01/31 10:15:17;;;;;;;23.55;12.63;;;4.10;99.90;;;;;;5026813;28;20210;-74
2023/01/31 10:18:08;;;;;;;26.05;13.18;;;4.10;99.90;;;;;;5032278;28;20252;-74
2023/01/31 10:20:56;;;;;;;25.65;13.55;;;4.20;99.90;;;;;;5032442;28;20580;-74
2023/01/31 10:23:48;;;;;;;30.95;13.27;;;4.20;99.90;;;;;;5032158;28;20232;-74
2023/01/31 10:26:40;;;;;;;25.20;13.43;;;4.30;99.90;;;;;;5016818;28;20236;-74
2023/01/31 10:29:31;;;;;;;27.33;13.05;;;4.40;99.90;;;;;;5022431;28;20560;-73
2023/01/31 10:32:25;;;;;;;30.65;13.55;;;4.40;99.90;;;;;;5031796;28;20261;-72
2023/01/31 10:35:16;;;;;;;24.90;11.35;;;4.40;99.90;;;;;;5022941;28;20205;-74
2023/01/31 10:38:07;;;;;;;27.90;13.57;;;4.40;99.90;;;;;;5030512;28;20291;-73
2023/01/31 10:40:59;;;;;;;20.55;12.00;;;4.50;99.90;;;;;;5030227;28;20229;-74
2023/01/31 10:43:50;;;;;;;27.70;14.88;;;4.50;99.90;;;;;;5029492;28;20206;-74
2023/01/31 10:46:36;;;;;;;20.67;12.13;;;4.60;99.90;;;;;;5027020;28;20277;-74
2023/01/31 10:49:26;;;;;;;23.25;12.50;;;4.50;99.90;;;;;;5029956;28;20225;-74
2023/01/31 10:52:22;;;;;;;25.08;12.43;;;4.50;99.90;;;;;;5024246;28;20237;-71
2023/01/31 10:55:29;;;;;;;21.92;12.75;;;4.50;99.90;;;;;;5016139;28;20210;-74
2023/01/31 10:58:18;;;;;;;32.63;14.52;;;4.60;99.90;;;;;;5018702;28;20226;-74
2023/01/31 11:01:07;;;;;;;29.55;11.40;;;4.50;99.90;;;;;;5018492;28;20209;-73
2023/01/31 11:03:54;;;;;;;25.42;13.27;;;4.60;99.90;;;;;;5019857;28;20240;-72
2023/01/31 11:06:40;;;;;;;29.25;13.00;;;4.60;99.90;;;;;;5020441;28;20202;-74
2023/01/31 11:09:30;;;;;;;26.83;13.55;;;4.60;99.90;;;;;;5019773;28;20241;-72
2023/01/31 11:12:15;;;;;;;34.72;13.45;;;4.60;99.90;;;;;;5024201;28;20226;-73
2023/01/31 11:15:14;;;;;;;30.48;14.43;;;4.60;99.90;;;;;;5022155;28;20686;-74
2023/01/31 11:18:01;;;;;;;29.95;12.45;;;4.60;99.90;;;;;;5026142;28;20689;-73
2023/01/31 11:20:47;;;;;;;21.52;11.80;;;4.60;99.90;;;;;;5019704;28;20209;-74
2023/01/31 11:23:35;;;;;;;22.20;11.13;;;4.70;99.90;;;;;;5023977;28;20209;-74
2023/01/31 11:26:29;;;;;;;26.92;10.95;;;4.70;99.90;;;;;;5023937;28;20694;-74
2023/01/31 11:29:21;;;;;;;19.77;11.13;;;4.70;99.90;;;;;;5019802;28;20229;-73
2023/01/31 11:32:18;;;;;;;24.05;9.48;;;4.70;99.90;;;;;;5019177;28;20222;-74
2023/01/31 11:35:07;;;;;;;24.85;11.35;;;4.90;99.90;;;;;;5018147;28;20861;-74
2023/01/31 11:37:54;;;;;;;23.92;10.90;;;4.90;99.90;;;;;;5024783;28;20206;-74
2023/01/31 11:40:40;;;;;;;29.33;9.73;;;4.90;99.90;;;;;;5057916;22;20311;-74
2023/01/31 11:43:30;;;;;;;27.90;10.32;;;4.80;99.90;;;;;;5041851;28;20248;-73
2023/01/31 11:46:16;;;;;;;24.17;9.48;;;4.90;99.90;;;;;;5042307;28;20205;-74
2023/01/31 11:49:12;;;;;;;28.70;11.52;;;4.90;99.90;;;;;;5041186;28;20271;-74
2023/01/31 11:51:59;;;;;;;26.98;10.68;;;4.90;99.90;;;;;;5017558;28;20209;-75
2023/01/31 11:54:48;;;;;;;27.13;10.48;;;4.90;99.90;;;;;;5020376;28;20209;-73
2023/01/31 11:57:36;;;;;;;23.63;10.35;;;4.90;99.90;;;;;;5021876;28;20307;-74
2023/01/31 12:00:24;;;;;;;21.52;11.05;;;4.90;99.90;;;;;;5014176;28;20504;-74
2023/01/31 12:03:16;;;;;;;21.10;10.25;;;5.00;99.90;;;;;;5021523;28;20398;-75
2023/01/31 12:06:05;;;;;;;33.13;11.45;;;4.90;99.90;;;;;;5020366;28;20209;-74
2023/01/31 12:08:54;;;;;;;23.10;10.75;;;5.00;99.90;;;;;;5013739;28;20237;-74
2023/01/31 12:11:51;;;;;;;19.25;8.52;;;4.90;99.90;;;;;;5021773;28;20209;-74
2023/01/31 12:14:39;;;;;;;21.77;9.40;;;4.90;99.90;;;;;;5021835;28;20291;-74
2023/01/31 12:17:25;;;;;;;23.98;9.07;;;5.00;99.90;;;;;;5024274;28;20595;-75
2023/01/31 12:20:29;;;;;;;21.98;9.45;;;5.00;99.90;;;;;;5024348;28;20654;-76
2023/01/31 12:23:27;;;;;;;19.85;9.23;;;5.00;99.90;;;;;;5018275;28;20205;-75
2023/01/31 12:26:19;;;;;;;19.23;8.68;;;5.00;99.90;;;;;;5018681;28;20273;-75
2023/01/31 12:29:24;;;;;;;20.88;9.57;;;5.00;99.90;;;;;;5022516;28;20237;-75
2023/01/31 12:32:25;;;;;;;23.65;9.68;;;5.00;99.90;;;;;;5021590;28;20584;-74
2023/01/31 12:35:27;;;;;;;14.55;8.35;;;4.90;99.90;;;;;;5015167;28;20682;-75
2023/01/31 12:38:35;;;;;;;18.48;9.25;;;5.00;99.90;;;;;;5023090;28;20205;-75
2023/01/31 12:41:31;;;;;;;16.60;10.35;;;5.00;99.90;;;;;;5015280;28;20840;-73
2023/01/31 12:44:32;;;;;;;15.95;8.50;;;5.00;99.90;;;;;;5014470;28;20205;-74
2023/01/31 12:47:50;;;;;;;21.45;9.18;;;5.00;99.90;;;;;;5023101;28;20197;-75
2023/01/31 12:50:43;;;;;;;20.88;10.35;;;5.00;99.90;;;;;;5018525;28;20234;-75
2023/01/31 12:53:47;;;;;;;23.05;9.75;;;5.00;99.90;;;;;;5019008;28;20280;-74
2023/01/31 12:56:58;;;;;;;17.90;8.63;;;5.10;99.90;;;;;;5019289;28;20576;-74
2023/01/31 12:59:51;;;;;;;22.77;8.18;;;5.10;99.90;;;;;;5016705;28;20793;-74
2023/01/31 13:02:45;;;;;;;18.65;9.82;;;5.20;99.90;;;;;;5019090;28;20567;-74
2023/01/31 13:05:38;;;;;;;24.17;8.63;;;5.20;99.90;;;;;;5021635;28;20213;-75
2023/01/31 13:08:27;;;;;;;17.23;7.95;;;5.20;99.90;;;;;;5017298;28;20206;-74
2023/01/31 13:11:19;;;;;;;16.55;8.45;;;5.20;99.90;;;;;;5022898;28;20755;-74
2023/01/31 13:14:10;;;;;;;15.82;8.25;;;5.20;99.90;;;;;;5018579;28;20245;-74
2023/01/31 13:17:00;;;;;;;17.25;8.32;;;5.20;99.90;;;;;;5024602;28;20343;-74
2023/01/31 13:19:49;;;;;;;19.70;8.60;;;5.20;99.90;;;;;;5023887;28;20250;-75
2023/01/31 13:22:44;;;;;;;17.08;7.88;;;5.20;99.90;;;;;;5018269;28;20205;-74
2023/01/31 13:25:37;;;;;;;13.63;8.45;;;5.10;99.90;;;;;;5021875;28;20336;-74
2023/01/31 13:28:30;;;;;;;13.95;7.95;;;5.10;99.90;;;;;;5019705;28;20202;-74
2023/01/31 13:31:21;;;;;;;17.42;8.43;;;5.10;99.90;;;;;;5019109;28;20210;-74
2023/01/31 13:34:13;;;;;;;19.27;8.75;;;5.10;99.90;;;;;;5019781;28;20229;-75
2023/01/31 13:37:02;;;;;;;13.75;8.85;;;5.20;99.90;;;;;;5015089;28;20213;-75
2023/01/31 13:39:52;;;;;;;14.45;8.48;;;5.10;99.90;;;;;;5025337;28;20238;-74
2023/01/31 13:42:38;;;;;;;13.82;7.57;;;5.10;99.90;;;;;;5020537;28;20593;-74
2023/01/31 13:45:30;;;;;;;19.60;9.30;;;5.10;99.90;;;;;;5021976;28;20205;-74
2023/01/31 13:48:23;;;;;;;21.95;7.88;;;5.00;99.90;;;;;;5022733;28;20272;-75
2023/01/31 13:51:16;;;;;;;21.10;8.80;;;5.10;99.90;;;;;;5026447;28;20461;-74
2023/01/31 13:54:07;;;;;;;18.50;7.63;;;5.00;99.90;;;;;;5019433;28;20222;-74
2023/01/31 13:56:54;;;;;;;14.63;8.52;;;5.00;99.90;;;;;;5022279;28;20202;-73
2023/01/31 13:59:40;;;;;;;23.00;9.68;;;5.00;99.90;;;;;;5024950;28;20230;-74
2023/01/31 14:02:27;;;;;;;16.15;8.43;;;5.00;99.90;;;;;;5016748;28;20395;-73
2023/01/31 14:05:49;;;;;;;15.48;9.05;;;4.90;99.90;;;;;;5025155;28;20210;-74
2023/01/31 14:08:57;;;;;;;14.77;9.15;;;4.90;99.90;;;;;;5022236;28;20593;-74
2023/01/31 14:11:46;;;;;;;13.40;8.60;;;4.90;99.90;;;;;;5015025;28;20880;-72
2023/01/31 14:14:40;;;;;;;21.10;9.15;;;4.90;99.90;;;;;;5027038;28;20242;-75
2023/01/31 14:18:02;;;;;;;16.80;8.75;;;4.90;99.90;;;;;;5028207;28;20205;-74
2023/01/31 14:20:49;;;;;;;13.73;8.40;;;4.90;99.90;;;;;;5022071;28;20603;-74
2023/01/31 14:23:46;;;;;;;13.15;9.05;;;5.00;99.90;;;;;;5024428;28;20626;-74
2023/01/31 14:26:50;;;;;;;17.75;9.38;;;5.00;99.90;;;;;;5028063;28;20682;-73
2023/01/31 14:29:42;;;;;;;15.13;9.10;;;4.90;99.90;;;;;;5017845;28;20233;-74
2023/01/31 14:32:33;;;;;;;14.13;9.45;;;4.90;99.90;;;;;;5018254;28;20206;-74
2023/01/31 14:35:31;;;;;;;20.33;9.57;;;4.90;99.90;;;;;;5024868;28;20262;-74
2023/01/31 14:38:30;;;;;;;14.07;9.15;;;5.00;99.90;;;;;;5022327;28;20206;-75
2023/01/31 14:41:28;;;;;;;18.75;9.88;;;5.00;99.90;;;;;;5022594;28;20238;-73
2023/01/31 14:44:28;;;;;;;14.10;9.25;;;5.00;99.90;;;;;;5019380;28;20219;-74
2023/01/31 14:47:30;;;;;;;20.58;10.90;;;5.00;99.90;;;;;;5025310;28;20206;-74
2023/01/31 14:50:32;;;;;;;25.60;11.13;;;4.90;99.90;;;;;;5021977;28;20713;-75